Lady Lola — ZCGQ7 — position and weather

sailwx.info

Track history (hours):
 
Tides and Currents Weather Stations Pressure Air Temp Water Temp Dewpoint Dewpoint Depression Visibility Wind Speed Wind Dir Waves Ship Positions

Lady Lola

Last reported at 2014-Sep-23 12:09 UTC. Time now 2014-Oct-01 06:05 UTC.
Position N 40°39' E 014°24'.

Length 62 m; draft 3.6 m.

Type: Pleasure craft. MMSI: 319713000.

Date/timePositionNaut miles runAvg speedWind from/ knotsBaromVisibWave heightAir tempDewpointWater temp
2014-Sep-23 12:09N 40°39' E 014°24'14 3.7
2014-Sep-23 08:17N 40°38' E 014°05'911.9
2014-Sep-23 07:34N 40°45' E 013°58'4 3.6
2014-Sep-23 06:31N 40°45' E 013°53'0 0.0
2014-Sep-23 05:31N 40°45' E 013°53'0 0.0
2014-Sep-23 04:31N 40°45' E 013°53'0 0.0
2014-Sep-23 03:31N 40°45' E 013°53'0 0.0
2014-Sep-23 02:31N 40°45' E 013°53'0 0.0
2014-Sep-23 01:31N 40°45' E 013°53'0 0.0
2014-Sep-23 00:31N 40°45' E 013°53'0 0.0
2014-Sep-22 23:31N 40°45' E 013°53'0 0.0
2014-Sep-22 22:31N 40°45' E 013°53'0 0.0
2014-Sep-22 21:31N 40°45' E 013°53'8 0.2
2014-Sep-21 13:27N 40°45' E 014°03'  
2014-Sep-15 14:28N 37°52' E 023°27'1112.2
2014-Sep-15 13:33N 37°56' E 023°41'0 0.3
2014-Sep-15 12:33N 37°56' E 023°41'0 0.0
2014-Sep-15 11:30N 37°56' E 023°41'0 0.0
2014-Sep-15 10:30N 37°56' E 023°41'0 0.0
2014-Sep-15 09:27N 37°56' E 023°41'0 0.0
2014-Sep-15 08:30N 37°56' E 023°41'0 0.0
2014-Sep-15 07:24N 37°56' E 023°41'0 0.0
2014-Sep-15 06:24N 37°56' E 023°41'0 0.0
2014-Sep-15 04:33N 37°56' E 023°41'0 0.0
2014-Sep-15 03:24N 37°56' E 023°41'0 0.0
2014-Sep-15 00:30N 37°56' E 023°41'0 0.0
2014-Sep-14 23:30N 37°56' E 023°41'0 0.0
2014-Sep-14 22:24N 37°56' E 023°41'0 0.0
2014-Sep-14 21:18N 37°56' E 023°41'0 0.0
2014-Sep-14 20:24N 37°56' E 023°41'0 0.0
2014-Sep-14 19:33N 37°56' E 023°41'0 0.0
2014-Sep-14 18:33N 37°56' E 023°41'0 0.0
2014-Sep-14 17:33N 37°56' E 023°41'0 0.0
2014-Sep-14 15:06N 37°56' E 023°41'0 0.0
2014-Sep-14 14:18N 37°56' E 023°41'0 0.1
2014-Sep-14 12:33N 37°56' E 023°41'1111.2
2014-Sep-14 11:33N 37°46' E 023°34'10 5.0
2014-Sep-14 09:32N 37°45' E 023°22'1110.7
2014-Sep-14 08:31N 37°53' E 023°31'8 8.8
2014-Sep-14 07:34N 37°56' E 023°41'0 0.3
2014-Sep-14 06:32N 37°56' E 023°41'0 0.0
2014-Sep-14 02:20N 37°56' E 023°41'0 0.0
2014-Sep-14 01:09N 37°56' E 023°41'0 0.0
2014-Sep-13 21:17N 37°56' E 023°41'0 0.0
2014-Sep-13 19:21N 37°56' E 023°41'0 0.0
2014-Sep-13 17:15N 37°56' E 023°41'0 0.0
2014-Sep-13 16:26N 37°56' E 023°41'0 0.0
2014-Sep-13 15:16N 37°56' E 023°41'0 0.0
2014-Sep-13 14:24N 37°56' E 023°41'  
Track history (hours):
 
Tides and Currents Weather Stations Pressure Air Temp Water Temp Dewpoint Dewpoint Depression Visibility Wind Speed Wind Dir Waves Ship Positions

Lady Lola

Last reported at 2014-Sep-23 12:09 UTC. Time now 2014-Oct-01 06:05 UTC.
Position N 40°39' E 014°24'.

Length 62 m; draft 3.6 m.

Type: Pleasure craft. MMSI: 319713000.

Date/timePositionNaut miles runAvg speedWind from/ knotsBaromVisibWave heightAir tempDewpointWater temp
2014-Sep-23 12:09N 40°39' E 014°24'14 3.7
2014-Sep-23 08:17N 40°38' E 014°05'911.9
2014-Sep-23 07:34N 40°45' E 013°58'4 3.6
2014-Sep-23 06:31N 40°45' E 013°53'0 0.0
2014-Sep-23 05:31N 40°45' E 013°53'0 0.0
2014-Sep-23 04:31N 40°45' E 013°53'0 0.0
2014-Sep-23 03:31N 40°45' E 013°53'0 0.0
2014-Sep-23 02:31N 40°45' E 013°53'0 0.0
2014-Sep-23 01:31N 40°45' E 013°53'0 0.0
2014-Sep-23 00:31N 40°45' E 013°53'0 0.0
2014-Sep-22 23:31N 40°45' E 013°53'0 0.0
2014-Sep-22 22:31N 40°45' E 013°53'0 0.0
2014-Sep-22 21:31N 40°45' E 013°53'8 0.2
2014-Sep-21 13:27N 40°45' E 014°03'  
2014-Sep-15 14:28N 37°52' E 023°27'1112.2
2014-Sep-15 13:33N 37°56' E 023°41'0 0.3
2014-Sep-15 12:33N 37°56' E 023°41'0 0.0
2014-Sep-15 11:30N 37°56' E 023°41'0 0.0
2014-Sep-15 10:30N 37°56' E 023°41'0 0.0
2014-Sep-15 09:27N 37°56' E 023°41'0 0.0
2014-Sep-15 08:30N 37°56' E 023°41'0 0.0
2014-Sep-15 07:24N 37°56' E 023°41'0 0.0
2014-Sep-15 06:24N 37°56' E 023°41'0 0.0
2014-Sep-15 04:33N 37°56' E 023°41'0 0.0
2014-Sep-15 03:24N 37°56' E 023°41'0 0.0
2014-Sep-15 00:30N 37°56' E 023°41'0 0.0
2014-Sep-14 23:30N 37°56' E 023°41'0 0.0
2014-Sep-14 22:24N 37°56' E 023°41'0 0.0
2014-Sep-14 21:18N 37°56' E 023°41'0 0.0
2014-Sep-14 20:24N 37°56' E 023°41'0 0.0
2014-Sep-14 19:33N 37°56' E 023°41'0 0.0
2014-Sep-14 18:33N 37°56' E 023°41'0 0.0
2014-Sep-14 17:33N 37°56' E 023°41'0 0.0
2014-Sep-14 15:06N 37°56' E 023°41'0 0.0
2014-Sep-14 14:18N 37°56' E 023°41'0 0.1
2014-Sep-14 12:33N 37°56' E 023°41'1111.2
2014-Sep-14 11:33N 37°46' E 023°34'10 5.0
2014-Sep-14 09:32N 37°45' E 023°22'1110.7
2014-Sep-14 08:31N 37°53' E 023°31'8 8.8
2014-Sep-14 07:34N 37°56' E 023°41'0 0.3
2014-Sep-14 06:32N 37°56' E 023°41'0 0.0
2014-Sep-14 02:20N 37°56' E 023°41'0 0.0
2014-Sep-14 01:09N 37°56' E 023°41'0 0.0
2014-Sep-13 21:17N 37°56' E 023°41'0 0.0
2014-Sep-13 19:21N 37°56' E 023°41'0 0.0
2014-Sep-13 17:15N 37°56' E 023°41'0 0.0
2014-Sep-13 16:26N 37°56' E 023°41'0 0.0
2014-Sep-13 15:16N 37°56' E 023°41'0 0.0
2014-Sep-13 14:24N 37°56' E 023°41'  

Dump ship's entire track history